createdAt,value
2019-02-27T00:00:12.091Z,7.20
2019-02-27T00:02:41.778Z,7.20
2019-02-27T00:05:09.855Z,7.00
2019-02-27T00:07:37.547Z,6.90
2019-02-27T00:10:06.139Z,6.90
2019-02-27T00:12:35.243Z,7.00
2019-02-27T00:15:05.104Z,7.10
2019-02-27T00:17:32.582Z,7.00
2019-02-27T00:20:04.071Z,7.00
2019-02-27T00:22:29.766Z,7.00
2019-02-27T00:24:57.080Z,6.90
2019-02-27T00:27:36.712Z,6.80
2019-02-27T00:30:05.724Z,6.80
2019-02-27T00:32:34.780Z,6.80
2019-02-27T00:35:06.387Z,6.70
2019-02-27T00:37:31.687Z,6.60
2019-02-27T00:39:59.188Z,6.50
2019-02-27T00:42:33.337Z,6.60
2019-02-27T00:44:56.167Z,6.60
2019-02-27T00:47:23.421Z,6.40
2019-02-27T00:50:06.590Z,6.50
2019-02-27T00:52:33.283Z,6.40
2019-02-27T00:55:04.339Z,6.50
2019-02-27T00:57:30.469Z,6.40
2019-02-27T00:59:58.243Z,6.40
2019-02-27T01:02:26.192Z,6.40
2019-02-27T01:04:53.667Z,6.40
2019-02-27T01:07:21.467Z,6.40
2019-02-27T01:09:49.597Z,6.30
2019-02-27T01:12:17.315Z,6.30
2019-02-27T01:14:45.080Z,6.30
2019-02-27T01:17:12.690Z,6.30
2019-02-27T01:19:42.564Z,6.30
2019-02-27T01:22:10.079Z,6.10
2019-02-27T01:24:37.474Z,6.10
2019-02-27T01:27:05.419Z,6.20
2019-02-27T01:29:32.992Z,6.10
2019-02-27T01:32:00.546Z,6.10
2019-02-27T01:34:28.159Z,6.00
2019-02-27T01:36:57.894Z,6.00
2019-02-27T01:39:25.272Z,6.00
2019-02-27T01:41:55.309Z,6.00
2019-02-27T01:44:22.457Z,6.10
2019-02-27T01:46:49.936Z,6.00
2019-02-27T01:49:17.693Z,6.10
2019-02-27T01:51:45.047Z,6.00
2019-02-27T01:54:15.057Z,6.00
2019-02-27T01:56:42.275Z,6.00
2019-02-27T01:59:09.942Z,6.00
2019-02-27T02:01:37.592Z,6.10
2019-02-27T02:04:05.344Z,6.00
2019-02-27T02:06:33.025Z,6.00
2019-02-27T02:09:38.356Z,6.00
2019-02-27T02:12:09.343Z,5.90
2019-02-27T02:14:54.069Z,5.70
2019-02-27T02:18:07.699Z,5.80
2019-02-27T02:21:01.819Z,5.70
2019-02-27T02:23:56.238Z,5.70
2019-02-27T02:27:02.615Z,5.60
2019-02-27T02:30:14.117Z,5.60
2019-02-27T02:33:18.020Z,5.60
2019-02-27T02:36:14.428Z,5.50
2019-02-27T02:38:55.827Z,5.40
2019-02-27T02:41:46.772Z,5.20
2019-02-27T02:44:24.121Z,5.20
2019-02-27T02:47:22.788Z,5.30
2019-02-27T02:50:25.621Z,5.20
2019-02-27T02:53:05.472Z,5.20
2019-02-27T02:56:08.186Z,5.30
2019-02-27T02:59:12.404Z,5.30
2019-02-27T03:01:54.981Z,5.30
2019-02-27T03:04:49.355Z,5.20
2019-02-27T03:07:44.461Z,5.00
2019-02-27T03:11:03.084Z,5.00
2019-02-27T03:14:23.849Z,5.00
2019-02-27T03:17:18.423Z,5.00
2019-02-27T03:20:09.726Z,5.00
2019-02-27T03:23:09.075Z,5.10
2019-02-27T03:26:17.782Z,5.10
2019-02-27T03:29:25.215Z,5.10
2019-02-27T03:32:07.051Z,5.10
2019-02-27T03:35:10.342Z,4.90
2019-02-27T03:38:02.157Z,4.90
2019-02-27T03:40:51.402Z,4.90
2019-02-27T03:43:45.716Z,4.90
2019-02-27T03:46:46.449Z,5.00
2019-02-27T03:49:52.866Z,4.90
2019-02-27T03:52:40.884Z,4.90
2019-02-27T03:55:47.882Z,4.90
2019-02-27T03:59:11.287Z,4.90
2019-02-27T04:02:20.899Z,4.90
2019-02-27T04:05:20.428Z,4.90
2019-02-27T04:08:26.836Z,4.80
2019-02-27T04:10:54.342Z,4.70
2019-02-27T04:13:26.662Z,4.50
2019-02-27T04:15:53.657Z,4.60
2019-02-27T04:18:20.107Z,4.60
2019-02-27T04:20:50.812Z,4.60
2019-02-27T04:23:17.678Z,4.60
2019-02-27T04:25:45.095Z,4.60
2019-02-27T04:28:12.721Z,4.30
2019-02-27T04:30:40.397Z,4.40
2019-02-27T04:33:07.770Z,4.40
2019-02-27T04:35:39.228Z,4.50
2019-02-27T04:38:05.371Z,4.50
2019-02-27T04:40:32.988Z,4.30
2019-02-27T04:43:00.503Z,4.40
2019-02-27T04:45:28.165Z,4.40
2019-02-27T04:47:55.631Z,4.30
2019-02-27T04:50:23.114Z,4.20
2019-02-27T04:52:51.266Z,4.20
2019-02-27T04:55:19.758Z,4.30
2019-02-27T04:57:47.254Z,4.40
2019-02-27T05:00:14.712Z,4.20
2019-02-27T05:02:42.633Z,4.20
2019-02-27T05:05:10.294Z,4.20
2019-02-27T05:07:37.702Z,4.20
2019-02-27T05:10:07.326Z,4.10
2019-02-27T05:12:35.221Z,4.10
2019-02-27T05:15:04.204Z,4.00
2019-02-27T05:17:32.331Z,3.90
2019-02-27T05:19:59.668Z,4.00
2019-02-27T05:22:27.339Z,4.10
2019-02-27T05:24:56.029Z,3.90
2019-02-27T05:27:23.930Z,4.00
2019-02-27T05:29:51.314Z,4.00
2019-02-27T05:32:19.213Z,4.00
2019-02-27T05:34:49.792Z,3.80
2019-02-27T05:37:16.254Z,3.60
2019-02-27T05:39:43.755Z,3.40
2019-02-27T05:42:13.139Z,3.60
2019-02-27T05:44:40.746Z,3.70
2019-02-27T05:47:08.676Z,3.50
2019-02-27T05:49:37.930Z,3.50
2019-02-27T05:52:05.429Z,3.50
2019-02-27T05:54:32.928Z,3.60
2019-02-27T05:57:00.705Z,3.50
2019-02-27T05:59:29.435Z,3.60
2019-02-27T06:01:57.423Z,3.60
2019-02-27T06:04:25.692Z,3.50
2019-02-27T06:07:05.840Z,3.60
2019-02-27T06:09:34.244Z,3.70
2019-02-27T06:12:06.529Z,3.70
2019-02-27T06:14:34.128Z,3.70
2019-02-27T06:17:01.873Z,3.70
2019-02-27T06:19:30.563Z,3.70
2019-02-27T06:21:59.073Z,3.70
2019-02-27T06:24:26.638Z,3.60
2019-02-27T06:26:53.946Z,3.60
2019-02-27T06:29:23.995Z,3.60
2019-02-27T06:31:50.706Z,3.60
2019-02-27T06:34:18.681Z,3.50
2019-02-27T06:36:46.754Z,3.50
2019-02-27T06:39:14.151Z,3.50
2019-02-27T06:41:41.708Z,3.60
2019-02-27T06:44:10.161Z,3.60
2019-02-27T06:46:37.998Z,3.50
2019-02-27T06:49:05.511Z,3.40
2019-02-27T06:51:35.550Z,3.30
2019-02-27T06:54:02.650Z,3.50
2019-02-27T06:56:30.107Z,3.50
2019-02-27T06:58:57.644Z,3.40
2019-02-27T07:01:25.163Z,3.50
2019-02-27T07:03:52.647Z,3.50
2019-02-27T07:06:21.571Z,3.60
2019-02-27T07:08:49.712Z,3.60
2019-02-27T07:11:17.215Z,3.70
2019-02-27T07:13:44.711Z,3.70
2019-02-27T07:16:13.224Z,3.60
2019-02-27T07:18:41.787Z,3.70
2019-02-27T07:21:10.188Z,3.70
2019-02-27T07:23:37.661Z,3.70
2019-02-27T07:26:05.419Z,3.70
2019-02-27T07:28:34.453Z,3.70
2019-02-27T07:31:02.069Z,3.70
2019-02-27T07:33:29.825Z,3.70
2019-02-27T07:35:57.392Z,3.70
2019-02-27T07:38:25.566Z,3.70
2019-02-27T07:40:53.338Z,3.80
2019-02-27T07:43:21.086Z,3.80
2019-02-27T07:45:48.591Z,3.80
2019-02-27T07:48:16.464Z,3.80
2019-02-27T07:50:48.364Z,3.80
2019-02-27T07:53:17.421Z,3.90
2019-02-27T07:55:44.150Z,3.90
2019-02-27T07:58:11.863Z,4.00
2019-02-27T08:00:39.402Z,4.10
2019-02-27T08:03:09.836Z,4.10
2019-02-27T08:05:36.696Z,4.10
2019-02-27T08:08:04.361Z,4.20
2019-02-27T08:10:31.897Z,4.30
2019-02-27T08:12:59.378Z,4.30
2019-02-27T08:15:26.896Z,4.40
2019-02-27T08:17:57.640Z,4.50
2019-02-27T08:20:23.913Z,4.60
2019-02-27T08:22:52.538Z,4.60
2019-02-27T08:25:20.062Z,4.70
2019-02-27T08:27:47.566Z,4.80
2019-02-27T08:30:19.854Z,4.90
2019-02-27T08:32:48.058Z,5.10
2019-02-27T08:35:16.713Z,5.10
2019-02-27T08:37:44.493Z,5.20
2019-02-27T08:40:11.887Z,5.30
2019-02-27T08:42:40.630Z,6.00
2019-02-27T08:45:18.988Z,6.40
2019-02-27T08:47:40.812Z,6.70
2019-02-27T08:50:13.905Z,6.70
2019-02-27T08:52:41.430Z,6.70
2019-02-27T08:55:18.803Z,6.70
2019-02-27T08:57:39.432Z,6.60
2019-02-27T09:00:14.181Z,6.70
2019-02-27T09:02:40.664Z,6.80
2019-02-27T09:05:08.057Z,6.90
2019-02-27T09:07:37.073Z,6.90
2019-02-27T09:10:05.929Z,7.20
2019-02-27T09:12:33.462Z,7.20
2019-02-27T09:15:00.966Z,7.10
2019-02-27T09:17:28.479Z,7.20
2019-02-27T09:19:55.999Z,7.50
2019-02-27T09:22:23.480Z,7.40
2019-02-27T09:24:50.852Z,7.60
2019-02-27T09:27:18.388Z,7.70
2019-02-27T09:29:46.041Z,7.60
2019-02-27T09:32:13.566Z,7.50
2019-02-27T09:34:41.352Z,7.40
2019-02-27T09:37:08.801Z,7.40
2019-02-27T09:39:48.905Z,7.70
2019-02-27T09:42:19.149Z,8.00
2019-02-27T09:44:46.213Z,8.20
2019-02-27T09:47:13.545Z,8.10
2019-02-27T09:49:41.621Z,8.30
2019-02-27T09:52:09.464Z,8.20
2019-02-27T09:54:37.229Z,8.20
2019-02-27T09:57:04.871Z,8.10
2019-02-27T09:59:32.960Z,8.20
2019-02-27T10:02:00.319Z,8.20
2019-02-27T10:04:28.803Z,8.20
2019-02-27T10:06:56.540Z,8.20
2019-02-27T10:09:24.017Z,8.30
2019-02-27T10:11:52.341Z,8.50
2019-02-27T10:14:21.487Z,8.40
2019-02-27T10:16:48.875Z,8.60
2019-02-27T10:19:17.238Z,8.70
2019-02-27T10:21:45.357Z,8.70
2019-02-27T10:24:12.726Z,8.70
2019-02-27T10:26:40.919Z,8.70
2019-02-27T10:29:10.953Z,8.80
2019-02-27T10:31:37.911Z,8.90
2019-02-27T10:34:06.040Z,8.90
2019-02-27T10:36:38.176Z,9.00
2019-02-27T10:39:05.055Z,9.00
2019-02-27T10:41:34.552Z,9.20
2019-02-27T10:44:02.052Z,9.20
2019-02-27T10:46:29.534Z,9.30
2019-02-27T10:48:57.522Z,9.40
2019-02-27T10:51:25.019Z,9.50
2019-02-27T10:53:52.621Z,9.50
2019-02-27T10:56:21.614Z,9.60
2019-02-27T10:58:49.582Z,9.60
2019-02-27T11:01:16.953Z,9.80
2019-02-27T11:03:44.340Z,9.90
2019-02-27T11:06:11.983Z,10.00
2019-02-27T11:08:39.680Z,10.00
2019-02-27T11:11:08.624Z,10.00
2019-02-27T11:13:36.840Z,10.10
2019-02-27T11:16:04.505Z,10.20
2019-02-27T11:18:31.871Z,10.20
2019-02-27T11:20:59.498Z,10.30
2019-02-27T11:23:27.052Z,10.40
2019-02-27T11:25:57.015Z,10.50
2019-02-27T11:28:23.977Z,10.50
2019-02-27T11:30:51.594Z,10.60
2019-02-27T11:33:25.662Z,10.70
2019-02-27T11:35:48.533Z,10.70
2019-02-27T11:38:16.436Z,10.80
2019-02-27T11:40:43.885Z,11.00
2019-02-27T11:43:11.397Z,11.30
2019-02-27T11:45:39.511Z,11.30
2019-02-27T11:48:07.317Z,11.30
2019-02-27T11:50:34.705Z,11.30
2019-02-27T11:53:03.060Z,11.30
2019-02-27T11:55:30.765Z,11.30
2019-02-27T11:57:58.447Z,11.40
2019-02-27T12:00:27.329Z,11.50
2019-02-27T12:02:55.888Z,11.50
2019-02-27T12:05:23.434Z,11.50
2019-02-27T12:07:51.790Z,11.60
2019-02-27T12:10:20.462Z,11.70
2019-02-27T12:12:50.216Z,12.00
2019-02-27T12:15:17.850Z,12.00
2019-02-27T12:17:47.020Z,12.10
2019-02-27T12:20:18.062Z,12.20
2019-02-27T12:22:45.222Z,12.40
2019-02-27T12:25:13.431Z,12.70
2019-02-27T12:27:48.955Z,12.90
2019-02-27T12:30:12.864Z,12.90
2019-02-27T12:32:42.568Z,12.80
2019-02-27T12:35:17.773Z,12.80
2019-02-27T12:37:45.302Z,13.20
2019-02-27T12:40:15.504Z,13.10
2019-02-27T12:42:43.226Z,13.10
2019-02-27T12:45:13.200Z,13.10
2019-02-27T12:47:41.378Z,13.10
2019-02-27T12:50:10.431Z,13.10
2019-02-27T12:52:38.170Z,13.10
2019-02-27T12:55:05.955Z,13.40
2019-02-27T12:57:33.468Z,13.30
2019-02-27T13:00:01.107Z,13.70
2019-02-27T13:02:35.636Z,13.70
2019-02-27T13:04:58.740Z,13.80
2019-02-27T13:07:27.711Z,13.90
2019-02-27T13:09:58.432Z,13.90
2019-02-27T13:12:25.395Z,14.10
2019-02-27T13:14:53.101Z,14.00
2019-02-27T13:17:22.833Z,14.00
2019-02-27T13:19:50.356Z,14.00
2019-02-27T13:22:18.347Z,13.90
2019-02-27T13:24:47.029Z,14.10
2019-02-27T13:27:15.052Z,14.00
2019-02-27T13:29:44.535Z,14.80
2019-02-27T13:32:13.838Z,14.70
2019-02-27T13:34:41.513Z,14.40
2019-02-27T13:37:10.058Z,14.30
2019-02-27T13:39:41.110Z,14.40
2019-02-27T13:42:08.497Z,14.30
2019-02-27T13:44:35.848Z,14.50
2019-02-27T13:47:03.322Z,14.40
2019-02-27T13:49:30.679Z,14.40
2019-02-27T13:51:58.280Z,14.30
2019-02-27T13:54:25.607Z,14.30
2019-02-27T13:56:52.979Z,14.30
2019-02-27T13:59:20.331Z,14.40
2019-02-27T14:01:47.815Z,14.40
2019-02-27T14:04:15.102Z,14.40
2019-02-27T14:06:47.297Z,14.50
2019-02-27T14:09:12.924Z,14.50
2019-02-27T14:11:41.053Z,14.50
2019-02-27T14:14:08.887Z,14.80
2019-02-27T14:16:36.961Z,15.20
2019-02-27T14:19:05.508Z,15.30
2019-02-27T14:21:35.653Z,15.00
2019-02-27T14:24:02.364Z,14.90
2019-02-27T14:26:29.929Z,14.90
2019-02-27T14:28:57.408Z,14.90
2019-02-27T14:31:25.065Z,14.80
2019-02-27T14:33:54.229Z,14.80
2019-02-27T14:36:22.010Z,15.00
2019-02-27T14:38:49.514Z,15.00
2019-02-27T14:41:17.563Z,15.00
2019-02-27T14:43:44.866Z,14.90
2019-02-27T14:46:12.889Z,15.10
2019-02-27T14:48:40.648Z,15.10
2019-02-27T14:51:11.214Z,15.00
2019-02-27T14:53:38.782Z,15.20
2019-02-27T14:56:09.183Z,15.10
2019-02-27T14:58:36.418Z,15.10
2019-02-27T15:01:04.968Z,15.10
2019-02-27T15:03:32.386Z,15.10
2019-02-27T15:05:59.966Z,15.30
2019-02-27T15:08:27.523Z,15.40
2019-02-27T15:10:54.944Z,15.20
2019-02-27T15:13:22.395Z,15.20
2019-02-27T15:15:50.884Z,15.20
2019-02-27T15:18:18.398Z,15.20
2019-02-27T15:20:45.873Z,15.20
2019-02-27T15:23:15.155Z,15.30
2019-02-27T15:25:43.427Z,15.20
2019-02-27T15:28:11.346Z,15.20
2019-02-27T15:30:38.807Z,15.20
2019-02-27T15:33:06.229Z,15.20
2019-02-27T15:35:33.857Z,15.20
2019-02-27T15:38:01.849Z,15.20
2019-02-27T15:40:30.224Z,15.20
2019-02-27T15:42:58.326Z,15.10
2019-02-27T15:45:26.716Z,15.10
2019-02-27T15:47:54.279Z,15.10
2019-02-27T15:50:22.894Z,15.20
2019-02-27T15:52:51.396Z,15.20
2019-02-27T15:55:18.904Z,15.20
2019-02-27T15:57:52.116Z,15.20
2019-02-27T16:00:18.627Z,15.20
2019-02-27T16:02:46.688Z,15.10
2019-02-27T16:05:14.065Z,15.10
2019-02-27T16:07:48.361Z,15.10
2019-02-27T16:10:14.392Z,15.10
2019-02-27T16:12:42.340Z,15.10
2019-02-27T16:15:10.326Z,15.10
2019-02-27T16:17:38.236Z,15.10
2019-02-27T16:20:08.179Z,15.20
2019-02-27T16:22:36.470Z,15.30
2019-02-27T16:25:04.161Z,15.30
2019-02-27T16:27:32.259Z,15.30
2019-02-27T16:30:01.400Z,15.40
2019-02-27T16:32:29.259Z,15.40
2019-02-27T16:34:56.637Z,15.50
2019-02-27T16:37:24.060Z,15.60
2019-02-27T16:39:51.523Z,15.60
2019-02-27T16:42:18.902Z,15.60
2019-02-27T16:44:46.352Z,15.60
2019-02-27T16:47:15.611Z,15.60
2019-02-27T16:49:43.231Z,15.60
2019-02-27T16:52:10.604Z,15.60
2019-02-27T16:54:38.001Z,15.50
2019-02-27T16:57:05.815Z,15.50
2019-02-27T16:59:33.155Z,15.40
2019-02-27T17:02:03.724Z,15.40
2019-02-27T17:04:31.015Z,15.30
2019-02-27T17:07:00.044Z,15.30
2019-02-27T17:09:27.554Z,15.30
2019-02-27T17:11:57.974Z,15.20
2019-02-27T17:14:25.527Z,15.30
2019-02-27T17:16:52.914Z,15.30
2019-02-27T17:19:20.817Z,15.30
2019-02-27T17:21:48.296Z,15.30
2019-02-27T17:24:20.951Z,15.30
2019-02-27T17:26:46.437Z,15.40
2019-02-27T17:29:14.260Z,15.30
2019-02-27T17:31:48.970Z,15.10
2019-02-27T17:34:13.769Z,14.80
2019-02-27T17:36:40.561Z,14.70
2019-02-27T17:39:07.975Z,14.50
2019-02-27T17:41:37.278Z,14.60
2019-02-27T17:44:05.372Z,14.30
2019-02-27T17:46:33.106Z,14.20
2019-02-27T17:49:01.216Z,14.00
2019-02-27T17:51:31.079Z,13.90
2019-02-27T17:53:58.770Z,13.80
2019-02-27T17:56:26.323Z,13.70
2019-02-27T17:58:54.210Z,13.70
2019-02-27T18:01:24.911Z,13.70
2019-02-27T18:03:51.079Z,13.60
2019-02-27T18:06:18.804Z,13.80
2019-02-27T18:08:49.082Z,13.80
2019-02-27T18:11:16.351Z,13.70
2019-02-27T18:13:43.814Z,13.60
2019-02-27T18:16:11.576Z,13.50
2019-02-27T18:18:43.101Z,13.30
2019-02-27T18:21:09.017Z,13.10
2019-02-27T18:23:36.780Z,12.80
2019-02-27T18:26:04.178Z,12.70
2019-02-27T18:28:32.927Z,12.60
2019-02-27T18:31:00.890Z,12.70
2019-02-27T18:33:28.986Z,12.80
2019-02-27T18:35:56.446Z,12.70
2019-02-27T18:38:27.633Z,12.80
2019-02-27T18:40:53.555Z,12.70
2019-02-27T18:43:21.241Z,12.70
2019-02-27T18:45:50.817Z,12.60
2019-02-27T18:48:18.280Z,12.50
2019-02-27T18:50:45.782Z,12.40
2019-02-27T18:53:14.027Z,12.30
2019-02-27T18:55:41.505Z,12.30
2019-02-27T18:58:09.262Z,12.30
2019-02-27T19:00:36.936Z,12.20
2019-02-27T19:03:05.499Z,12.20
2019-02-27T19:05:32.901Z,12.10
2019-02-27T19:08:00.614Z,12.10
2019-02-27T19:10:28.092Z,12.00
2019-02-27T19:12:55.988Z,11.90
2019-02-27T19:15:24.860Z,11.80
2019-02-27T19:17:52.596Z,11.80
2019-02-27T19:20:24.891Z,11.70
2019-02-27T19:22:53.198Z,11.60
2019-02-27T19:25:20.902Z,11.50
2019-02-27T19:27:49.860Z,11.40
2019-02-27T19:30:18.679Z,11.40
2019-02-27T19:32:46.673Z,11.30
2019-02-27T19:35:15.325Z,11.20
2019-02-27T19:37:43.087Z,11.20
2019-02-27T19:40:12.450Z,11.00
2019-02-27T19:42:47.662Z,10.80
2019-02-27T19:45:15.280Z,10.80
2019-02-27T19:47:42.818Z,10.60
2019-02-27T19:50:11.188Z,10.40
2019-02-27T19:52:39.433Z,10.30
2019-02-27T19:55:07.450Z,10.30
2019-02-27T19:57:34.995Z,10.20
2019-02-27T20:00:02.639Z,10.30
2019-02-27T20:02:31.456Z,10.30
2019-02-27T20:04:59.436Z,10.40
2019-02-27T20:07:26.853Z,10.40
2019-02-27T20:09:55.403Z,10.40
2019-02-27T20:12:23.443Z,10.40
2019-02-27T20:14:50.967Z,10.40
2019-02-27T20:17:18.514Z,10.30
2019-02-27T20:19:46.658Z,10.30
2019-02-27T20:22:15.431Z,10.30
2019-02-27T20:24:46.347Z,10.20
2019-02-27T20:27:14.371Z,10.20
2019-02-27T20:29:41.727Z,10.20
2019-02-27T20:32:10.734Z,10.20
2019-02-27T20:34:38.335Z,10.00
2019-02-27T20:37:07.322Z,10.00
2019-02-27T20:39:36.075Z,10.10
2019-02-27T20:42:04.432Z,10.10
2019-02-27T20:44:34.066Z,10.20
2019-02-27T20:47:02.283Z,10.20
2019-02-27T20:49:30.491Z,10.00
2019-02-27T20:51:58.155Z,10.00
2019-02-27T20:54:25.553Z,10.00
2019-02-27T20:56:55.800Z,9.90
2019-02-27T20:59:26.022Z,9.90
2019-02-27T21:02:12.255Z,9.80
2019-02-27T21:04:40.870Z,9.80
2019-02-27T21:07:08.195Z,9.80
2019-02-27T21:09:35.566Z,9.70
2019-02-27T21:12:22.441Z,9.50
2019-02-27T21:14:49.926Z,9.50
2019-02-27T21:17:20.864Z,9.50
2019-02-27T21:19:47.115Z,9.50
2019-02-27T21:24:44.757Z,9.40
2019-02-27T21:27:12.260Z,9.40
2019-02-27T21:29:43.145Z,9.40
2019-02-27T21:32:09.770Z,9.40
2019-02-27T21:34:37.905Z,9.30
2019-02-27T21:37:07.132Z,9.40
2019-02-27T21:39:36.455Z,9.30
2019-02-27T21:42:03.954Z,9.40
2019-02-27T21:44:33.061Z,9.30
2019-02-27T21:47:00.461Z,9.30
2019-02-27T21:49:31.622Z,9.20
2019-02-27T21:51:57.834Z,9.20
2019-02-27T21:54:25.311Z,9.30
2019-02-27T21:56:55.147Z,9.20
2019-02-27T21:59:22.972Z,9.20
2019-02-27T22:01:53.319Z,9.20
2019-02-27T22:04:19.815Z,9.10
2019-02-27T22:06:47.252Z,9.10
2019-02-27T22:09:14.809Z,9.10
2019-02-27T22:11:42.727Z,9.10
2019-02-27T22:14:10.223Z,9.20
2019-02-27T22:16:37.916Z,9.10
2019-02-27T22:19:05.333Z,9.00
2019-02-27T22:21:34.090Z,9.00
2019-02-27T22:24:02.469Z,8.80
2019-02-27T22:26:30.541Z,8.70
2019-02-27T22:28:58.598Z,8.60
2019-02-27T22:31:26.100Z,8.50
2019-02-27T22:33:56.219Z,8.50
2019-02-27T22:36:23.068Z,8.50
2019-02-27T22:38:50.542Z,8.60
2019-02-27T22:41:18.340Z,8.70
2019-02-27T22:44:01.687Z,8.60
2019-02-27T22:46:30.250Z,8.70
2019-02-27T22:48:59.969Z,8.50
2019-02-27T22:51:27.592Z,8.60
2019-02-27T22:53:55.195Z,8.50
2019-02-27T22:56:22.713Z,8.50
2019-02-27T22:58:51.669Z,8.40
2019-02-27T23:01:32.930Z,8.50
2019-02-27T23:04:05.191Z,8.60
2019-02-27T23:06:32.755Z,8.70
2019-02-27T23:09:00.208Z,8.70
2019-02-27T23:11:27.884Z,8.70
2019-02-27T23:13:55.239Z,8.70
2019-02-27T23:16:22.919Z,8.60
2019-02-27T23:18:50.234Z,8.60
2019-02-27T23:21:17.723Z,8.60
2019-02-27T23:23:58.377Z,8.60
2019-02-27T23:26:26.541Z,8.60
2019-02-27T23:28:54.288Z,8.40
2019-02-27T23:31:23.342Z,8.30
2019-02-27T23:33:51.455Z,8.30
2019-02-27T23:36:22.137Z,8.30
2019-02-27T23:38:48.807Z,8.30
2019-02-27T23:41:16.698Z,8.20
2019-02-27T23:43:44.055Z,8.10
2019-02-27T23:46:11.441Z,8.00
2019-02-27T23:48:42.441Z,8.00
2019-02-27T23:51:09.997Z,7.90
2019-02-27T23:53:37.796Z,8.00
2019-02-27T23:56:05.453Z,8.00
2019-02-27T23:58:32.913Z,8.00
